Time;durP1;ratioP1;P1;durP2;ratioP2;P2;SDS_P1;SDS_P2;PMS_P1;PMS_P2;Temp;Humidity;BMP_temperature;BMP_pressure;BME280_temperature;BME280_humidity;BME280_pressure;Samples;Min_cycle;Max_cycle;Signal;HPM_P1;HPM_P2
2021/10/03 00:02:00;;;;;;;11.15;6.40;;;18.00;96.70;;;;;;5103010;28;20035;-78
2021/10/03 00:04:31;;;;;;;9.50;5.45;;;18.10;96.70;;;;;;5104928;28;20355;-78
2021/10/03 00:07:00;;;;;;;8.57;5.93;;;18.10;96.70;;;;;;5101949;28;20093;-78
2021/10/03 00:09:35;;;;;;;9.75;6.22;;;18.10;96.70;;;;;;5087567;28;20450;-78
2021/10/03 00:12:04;;;;;;;7.55;5.85;;;18.00;96.70;;;;;;5085204;28;20540;-79
2021/10/03 00:14:32;;;;;;;9.15;6.22;;;18.00;96.70;;;;;;5089267;28;20741;-77
2021/10/03 00:17:01;;;;;;;6.85;5.32;;;18.00;96.70;;;;;;5103925;28;20067;-77
2021/10/03 00:19:29;;;;;;;9.27;5.90;;;18.10;96.70;;;;;;5101161;28;20040;-77
2021/10/03 00:21:57;;;;;;;11.32;6.55;;;18.10;96.70;;;;;;5097016;28;20135;-77
2021/10/03 00:24:26;;;;;;;7.20;5.45;;;18.20;96.70;;;;;;5086224;28;20048;-77
2021/10/03 00:26:56;;;;;;;8.20;5.57;;;18.20;96.70;;;;;;5084345;28;20035;-77
2021/10/03 00:29:25;;;;;;;9.07;6.07;;;18.10;96.70;;;;;;5085198;28;20529;-77
2021/10/03 00:31:53;;;;;;;10.10;6.85;;;18.00;96.70;;;;;;5086503;28;20509;-77
2021/10/03 00:34:21;;;;;;;7.43;5.78;;;17.90;96.70;;;;;;5104407;28;20039;-77
2021/10/03 00:36:49;;;;;;;9.32;6.43;;;18.00;96.70;;;;;;5083203;28;20147;-77
2021/10/03 00:39:17;;;;;;;9.30;6.50;;;18.00;96.70;;;;;;5098147;28;20058;-77
2021/10/03 00:41:46;;;;;;;10.18;6.20;;;18.00;96.70;;;;;;5101221;28;20400;-77
2021/10/03 00:44:16;;;;;;;11.60;6.32;;;18.00;96.70;;;;;;5102657;27;20036;-77
2021/10/03 00:46:44;;;;;;;9.25;5.68;;;18.00;96.70;;;;;;5102542;28;20462;-77
2021/10/03 00:49:13;;;;;;;7.53;6.07;;;18.00;96.70;;;;;;5103401;28;20074;-77
2021/10/03 00:51:41;;;;;;;7.63;6.00;;;18.00;96.70;;;;;;5083984;28;20039;-77
2021/10/03 00:54:09;;;;;;;8.02;5.97;;;18.10;96.70;;;;;;5089930;28;20051;-77
2021/10/03 00:56:39;;;;;;;8.63;5.90;;;18.30;96.70;;;;;;5101435;28;20043;-77
2021/10/03 00:59:07;;;;;;;7.15;5.50;;;18.20;96.70;;;;;;5103629;28;20451;-77
2021/10/03 01:01:37;;;;;;;8.57;5.95;;;18.10;96.70;;;;;;5102966;28;20386;-77
2021/10/03 01:04:05;;;;;;;10.45;5.60;;;18.00;96.70;;;;;;5083675;28;20079;-77
2021/10/03 01:06:35;;;;;;;8.80;5.65;;;17.90;96.70;;;;;;5084854;28;20043;-77
2021/10/03 01:09:04;;;;;;;6.20;5.43;;;17.90;96.70;;;;;;5084634;28;20046;-77
2021/10/03 01:11:32;;;;;;;8.07;5.53;;;17.90;96.70;;;;;;5085768;28;20123;-77
2021/10/03 01:14:00;;;;;;;8.23;5.38;;;17.90;96.70;;;;;;5101140;28;20108;-77
2021/10/03 01:16:28;;;;;;;8.25;5.45;;;17.90;96.70;;;;;;5084867;28;20031;-77
2021/10/03 01:19:03;;;;;;;6.90;4.90;;;17.80;96.70;;;;;;5083281;28;20046;-77
2021/10/03 01:21:34;;;;;;;5.97;4.60;;;17.80;96.70;;;;;;5103748;28;20485;-77
2021/10/03 01:24:02;;;;;;;7.53;4.72;;;17.80;96.70;;;;;;5102572;28;20036;-77
2021/10/03 01:26:30;;;;;;;7.40;5.03;;;17.90;96.70;;;;;;5103744;28;20092;-77
2021/10/03 01:28:59;;;;;;;6.05;4.60;;;17.80;96.70;;;;;;5094651;28;20043;-77
2021/10/03 01:31:29;;;;;;;6.18;5.03;;;17.70;96.70;;;;;;5101053;28;20047;-77
2021/10/03 01:33:58;;;;;;;6.68;5.10;;;17.70;96.70;;;;;;5081358;28;20053;-77
2021/10/03 01:36:26;;;;;;;6.47;4.93;;;17.60;96.70;;;;;;5100038;28;20396;-77
2021/10/03 01:38:56;;;;;;;6.68;5.07;;;17.60;96.70;;;;;;5067078;28;20131;-77
2021/10/03 01:41:25;;;;;;;9.73;5.70;;;17.60;96.70;;;;;;5085147;28;20551;-77
2021/10/03 01:43:53;;;;;;;14.90;5.60;;;17.60;96.70;;;;;;5083111;28;20043;-78
2021/10/03 01:46:21;;;;;;;6.68;4.90;;;17.50;96.70;;;;;;5084521;28;20043;-78
2021/10/03 01:48:49;;;;;;;7.47;5.30;;;17.50;96.70;;;;;;5100621;28;20135;-78
2021/10/03 01:51:18;;;;;;;8.27;5.00;;;17.50;96.70;;;;;;5104012;28;20044;-78
2021/10/03 01:53:50;;;;;;;9.25;5.40;;;17.50;96.70;;;;;;5100908;28;20046;-78
2021/10/03 01:56:21;;;;;;;6.80;4.78;;;17.50;96.70;;;;;;5083746;28;20139;-78
2021/10/03 01:58:56;;;;;;;6.80;5.30;;;17.50;96.70;;;;;;5099263;28;20040;-78
2021/10/03 02:01:26;;;;;;;6.38;5.32;;;17.60;96.70;;;;;;5098422;28;20040;-78
2021/10/03 02:03:55;;;;;;;7.13;5.40;;;17.50;96.70;;;;;;5099913;28;20042;-78
2021/10/03 02:06:24;;;;;;;7.00;5.13;;;17.50;96.70;;;;;;5084037;28;20046;-78
2021/10/03 02:08:54;;;;;;;6.13;5.20;;;17.50;96.70;;;;;;5101360;28;20484;-78
2021/10/03 02:11:25;;;;;;;5.75;4.72;;;17.50;96.70;;;;;;5084462;28;20075;-78
2021/10/03 02:13:53;;;;;;;9.25;5.38;;;17.50;96.70;;;;;;5099816;28;20043;-78
2021/10/03 02:16:22;;;;;;;8.45;5.20;;;17.40;96.70;;;;;;5082944;28;20036;-78
2021/10/03 02:18:50;;;;;;;7.93;5.57;;;17.40;96.70;;;;;;5085032;28;20040;-78
2021/10/03 02:21:21;;;;;;;7.93;5.13;;;17.40;96.70;;;;;;5079694;28;20130;-78
2021/10/03 02:23:49;;;;;;;7.63;5.47;;;17.40;96.70;;;;;;5084835;28;20131;-78
2021/10/03 02:26:17;;;;;;;9.40;5.20;;;17.30;96.70;;;;;;5099981;28;20035;-78
2021/10/03 02:28:47;;;;;;;10.25;5.47;;;17.30;96.70;;;;;;5084912;28;20520;-78
2021/10/03 02:31:16;;;;;;;7.43;5.50;;;17.30;96.70;;;;;;5081848;28;20497;-78
2021/10/03 02:33:49;;;;;;;10.60;5.22;;;17.30;96.70;;;;;;5099234;28;20036;-78
2021/10/03 02:36:19;;;;;;;6.25;5.10;;;17.20;96.70;;;;;;5083879;28;20055;-78
2021/10/03 02:38:48;;;;;;;7.55;5.18;;;17.20;96.70;;;;;;5102877;28;20048;-78
2021/10/03 02:41:17;;;;;;;5.68;4.72;;;17.20;96.70;;;;;;5100688;28;20158;-79
2021/10/03 02:43:49;;;;;;;9.65;4.90;;;17.20;96.70;;;;;;5081521;28;20374;-78
2021/10/03 02:46:19;;;;;;;8.82;5.60;;;17.20;96.70;;;;;;5101851;28;20134;-78
2021/10/03 02:48:50;;;;;;;7.95;5.03;;;17.30;96.70;;;;;;5106045;28;20035;-78
2021/10/03 02:51:19;;;;;;;9.93;5.50;;;17.40;96.70;;;;;;5105403;28;20045;-78
2021/10/03 02:53:48;;;;;;;5.38;4.80;;;17.30;96.70;;;;;;5106919;28;20087;-78
2021/10/03 02:56:16;;;;;;;6.22;4.82;;;17.30;96.70;;;;;;5070510;28;20047;-78
2021/10/03 02:58:46;;;;;;;7.00;5.47;;;17.30;96.70;;;;;;5087030;28;20066;-79
2021/10/03 03:01:15;;;;;;;7.43;5.13;;;17.30;96.70;;;;;;5087489;28;20111;-78
2021/10/03 03:03:43;;;;;;;6.20;5.20;;;17.20;96.70;;;;;;5086591;28;20035;-79
2021/10/03 03:06:12;;;;;;;5.82;4.85;;;17.20;96.70;;;;;;5087969;28;20047;-79
2021/10/03 03:08:41;;;;;;;5.40;4.82;;;17.20;96.70;;;;;;5087551;28;20031;-79
2021/10/03 03:11:09;;;;;;;7.35;4.97;;;17.20;96.70;;;;;;5080724;28;20097;-79
2021/10/03 03:13:37;;;;;;;5.40;4.68;;;17.10;96.70;;;;;;5086020;28;20042;-79
2021/10/03 03:16:08;;;;;;;8.20;5.63;;;17.10;96.70;;;;;;5089364;28;20403;-79
2021/10/03 03:18:36;;;;;;;8.27;4.97;;;17.10;96.70;;;;;;5104842;28;20043;-79
2021/10/03 03:21:04;;;;;;;6.38;5.40;;;17.00;96.70;;;;;;5087175;28;20485;-78
2021/10/03 03:23:32;;;;;;;14.30;5.55;;;17.00;96.70;;;;;;5084338;28;20032;-79
2021/10/03 03:26:00;;;;;;;5.97;5.03;;;17.10;96.70;;;;;;5105603;28;20539;-78
2021/10/03 03:28:28;;;;;;;7.70;5.00;;;17.10;96.70;;;;;;5085199;28;20650;-78
2021/10/03 03:30:56;;;;;;;9.30;4.93;;;17.10;96.70;;;;;;5105017;28;20105;-78
2021/10/03 03:33:25;;;;;;;5.45;4.68;;;17.00;96.70;;;;;;5105331;28;20085;-78
2021/10/03 03:35:54;;;;;;;6.22;5.32;;;17.00;96.70;;;;;;5087322;28;20086;-78
2021/10/03 03:38:22;;;;;;;6.78;5.55;;;17.00;96.70;;;;;;5102884;28;20039;-78
2021/10/03 03:40:51;;;;;;;8.63;4.85;;;17.00;96.70;;;;;;5084642;28;20507;-78
2021/10/03 03:43:18;;;;;;;7.55;4.95;;;17.10;96.70;;;;;;5104945;28;20127;-78
2021/10/03 03:45:46;;;;;;;7.38;5.32;;;17.00;96.70;;;;;;5070633;28;20052;-78
2021/10/03 03:48:14;;;;;;;7.03;4.65;;;17.00;96.70;;;;;;5105026;28;20043;-78
2021/10/03 03:50:44;;;;;;;10.27;6.03;;;17.00;96.70;;;;;;5087569;28;20040;-78
2021/10/03 03:53:12;;;;;;;7.07;4.60;;;16.80;96.70;;;;;;5063784;28;20501;-78
2021/10/03 03:55:39;;;;;;;6.75;4.97;;;16.90;96.70;;;;;;5098722;28;20464;-78
2021/10/03 03:58:07;;;;;;;6.63;4.70;;;16.90;96.70;;;;;;5104641;28;20097;-78
2021/10/03 04:00:36;;;;;;;7.10;4.63;;;16.80;96.70;;;;;;5085634;28;20035;-78
2021/10/03 04:03:04;;;;;;;7.30;5.05;;;16.70;96.70;;;;;;5086231;28;20044;-77
2021/10/03 04:05:31;;;;;;;8.50;5.07;;;16.70;96.70;;;;;;5081908;28;20047;-77
2021/10/03 04:08:01;;;;;;;6.25;4.90;;;16.80;96.70;;;;;;5069025;28;20209;-77
2021/10/03 04:10:29;;;;;;;6.28;4.88;;;16.80;96.70;;;;;;5086016;28;20067;-77
2021/10/03 04:12:57;;;;;;;7.22;4.85;;;16.90;96.70;;;;;;5083840;28;20135;-77
2021/10/03 04:15:25;;;;;;;8.52;4.93;;;16.80;96.70;;;;;;5086675;28;20451;-76
2021/10/03 04:17:57;;;;;;;5.80;4.93;;;16.80;96.70;;;;;;5101120;28;20614;-80
2021/10/03 04:20:24;;;;;;;7.68;4.93;;;16.70;96.70;;;;;;5081143;28;20047;-79
2021/10/03 04:22:53;;;;;;;4.95;4.45;;;16.70;96.70;;;;;;5101695;27;20469;-79
2021/10/03 04:25:22;;;;;;;5.43;4.15;;;16.70;96.70;;;;;;5077729;28;20063;-79
2021/10/03 04:27:50;;;;;;;6.53;4.80;;;16.70;96.70;;;;;;5084698;28;20036;-79
2021/10/03 04:30:32;;;;;;;7.15;5.05;;;16.60;96.70;;;;;;5045562;28;20087;-78
2021/10/03 04:32:59;;;;;;;5.03;3.95;;;16.50;96.70;;;;;;5061474;28;20041;-78
2021/10/03 04:35:27;;;;;;;7.20;5.63;;;16.50;96.70;;;;;;5059739;28;20033;-79
2021/10/03 04:37:55;;;;;;;21.10;12.05;;;16.40;96.70;;;;;;5047041;28;20082;-79
2021/10/03 04:40:25;;;;;;;36.80;21.23;;;16.40;96.70;;;;;;5041945;28;20123;-79
2021/10/03 04:42:53;;;;;;;41.65;25.88;;;16.50;96.70;;;;;;5060636;28;20032;-79
2021/10/03 04:45:21;;;;;;;35.00;21.23;;;16.50;96.70;;;;;;5039879;28;20075;-79
2021/10/03 04:47:48;;;;;;;30.63;19.45;;;16.40;96.70;;;;;;5060688;28;20060;-79
2021/10/03 04:50:16;;;;;;;40.17;24.10;;;16.50;96.70;;;;;;5042621;28;20044;-79
2021/10/03 04:52:45;;;;;;;40.70;25.20;;;16.50;96.70;;;;;;5028804;28;20071;-79
2021/10/03 04:55:13;;;;;;;42.13;26.63;;;16.50;96.70;;;;;;5059576;28;20494;-79
2021/10/03 04:57:42;;;;;;;73.10;40.65;;;16.50;96.70;;;;;;5043893;28;20387;-79
2021/10/03 05:00:11;;;;;;;94.47;48.75;;;16.40;96.70;;;;;;5043617;28;20060;-79
2021/10/03 05:02:39;;;;;;;78.35;42.53;;;16.30;96.70;;;;;;5040032;28;20041;-79
2021/10/03 05:05:08;;;;;;;74.80;39.35;;;16.30;96.70;;;;;;5039362;28;20132;-79
2021/10/03 05:07:36;;;;;;;60.35;31.80;;;16.30;96.70;;;;;;5103563;28;20081;-79
2021/10/03 05:10:05;;;;;;;54.67;29.40;;;16.40;96.70;;;;;;5082224;28;20072;-79
2021/10/03 05:12:33;;;;;;;46.85;25.90;;;16.30;96.70;;;;;;5085744;28;20066;-79
2021/10/03 05:15:02;;;;;;;32.45;18.23;;;16.30;96.70;;;;;;5085024;28;20044;-79
2021/10/03 05:17:30;;;;;;;22.27;12.75;;;16.30;96.70;;;;;;5103497;28;20688;-79
2021/10/03 05:19:58;;;;;;;15.93;9.60;;;16.30;96.70;;;;;;5102308;28;20077;-79
2021/10/03 05:22:26;;;;;;;19.08;11.13;;;16.30;96.70;;;;;;5085069;28;20054;-79
2021/10/03 05:24:54;;;;;;;19.67;10.55;;;16.30;96.70;;;;;;5101053;28;20130;-79
2021/10/03 05:27:22;;;;;;;13.02;8.98;;;16.40;96.70;;;;;;5082761;28;20052;-79
2021/10/03 05:29:50;;;;;;;17.15;10.40;;;16.40;96.70;;;;;;5102491;28;20036;-79
2021/10/03 05:32:20;;;;;;;16.33;10.38;;;16.40;96.70;;;;;;5083784;28;20054;-79
2021/10/03 05:34:48;;;;;;;16.48;9.65;;;16.40;96.70;;;;;;5098842;28;20047;-79
2021/10/03 05:37:16;;;;;;;12.60;8.05;;;16.40;96.70;;;;;;5085737;28;20445;-79
2021/10/03 05:39:44;;;;;;;13.02;8.32;;;16.40;96.70;;;;;;5082605;28;20043;-79
2021/10/03 05:42:12;;;;;;;12.43;7.25;;;16.40;96.70;;;;;;5084881;28;20040;-79
2021/10/03 05:44:40;;;;;;;11.65;7.03;;;16.50;96.70;;;;;;5101522;28;20031;-79
2021/10/03 05:47:09;;;;;;;10.15;6.47;;;16.60;96.70;;;;;;5102642;28;20457;-79
2021/10/03 05:49:38;;;;;;;9.70;7.07;;;16.60;96.70;;;;;;5065007;28;20040;-79
2021/10/03 05:52:06;;;;;;;9.98;6.53;;;16.70;96.70;;;;;;5083880;28;20048;-79
2021/10/03 05:54:34;;;;;;;10.43;6.65;;;16.80;96.70;;;;;;5101673;28;20039;-79
2021/10/03 05:57:02;;;;;;;12.02;7.35;;;16.70;96.70;;;;;;5095190;28;20126;-79
2021/10/03 05:59:30;;;;;;;19.60;12.27;;;16.70;96.70;;;;;;5103967;28;20122;-79
2021/10/03 06:01:58;;;;;;;24.27;14.32;;;16.80;96.70;;;;;;5101717;28;20138;-79
2021/10/03 06:04:26;;;;;;;38.30;19.48;;;16.80;96.70;;;;;;5084025;28;20035;-79
2021/10/03 06:06:57;;;;;;;37.88;20.88;;;16.80;96.70;;;;;;5100054;28;20043;-79
2021/10/03 06:09:25;;;;;;;32.03;18.08;;;16.80;96.70;;;;;;5100635;28;20047;-79
2021/10/03 06:11:53;;;;;;;19.80;12.77;;;17.00;96.70;;;;;;5084238;28;20047;-79
2021/10/03 06:14:21;;;;;;;18.17;11.30;;;16.80;96.70;;;;;;5102826;28;20462;-79
2021/10/03 06:16:49;;;;;;;19.35;10.07;;;16.80;96.70;;;;;;5083160;28;20417;-79
2021/10/03 06:19:18;;;;;;;19.77;11.10;;;16.80;96.70;;;;;;5102916;28;20077;-79
2021/10/03 06:21:46;;;;;;;19.83;11.80;;;16.80;96.70;;;;;;5073726;28;20047;-79
2021/10/03 06:24:18;;;;;;;21.75;12.10;;;16.80;96.70;;;;;;5103433;27;20458;-79
2021/10/03 06:26:47;;;;;;;19.63;11.82;;;16.90;96.70;;;;;;5088490;28;20067;-79
2021/10/03 06:29:16;;;;;;;20.08;11.20;;;17.00;96.70;;;;;;5089095;28;20146;-79
2021/10/03 06:31:45;;;;;;;16.10;10.80;;;17.00;96.70;;;;;;5086952;28;20047;-79
2021/10/03 06:34:14;;;;;;;14.13;10.20;;;17.10;96.70;;;;;;5105734;28;20134;-79
2021/10/03 06:36:42;;;;;;;14.43;9.90;;;17.10;96.70;;;;;;5086116;28;20398;-79
2021/10/03 06:39:10;;;;;;;12.73;9.07;;;17.20;96.70;;;;;;5106850;28;20122;-79
2021/10/03 06:41:40;;;;;;;12.88;8.95;;;17.30;96.70;;;;;;5103875;28;20039;-79
2021/10/03 06:44:11;;;;;;;11.80;8.25;;;17.30;96.70;;;;;;5104718;28;20067;-79
2021/10/03 06:46:40;;;;;;;12.75;8.80;;;17.40;96.70;;;;;;5086676;28;20040;-79
2021/10/03 06:49:08;;;;;;;11.40;8.35;;;17.50;96.70;;;;;;5084603;28;20044;-79
2021/10/03 06:51:37;;;;;;;12.20;8.40;;;17.60;96.70;;;;;;5085492;28;20067;-84
2021/10/03 06:54:05;;;;;;;13.65;7.78;;;17.70;96.70;;;;;;5105697;28;20066;-80
2021/10/03 06:56:33;;;;;;;12.35;8.57;;;17.80;96.70;;;;;;5084572;28;20043;-80
2021/10/03 06:59:03;;;;;;;12.45;8.15;;;17.80;96.70;;;;;;5087670;28;20390;-80
2021/10/03 07:01:32;;;;;;;9.23;8.00;;;17.80;96.70;;;;;;5070782;28;20134;-80
2021/10/03 07:04:00;;;;;;;9.70;8.13;;;17.90;96.70;;;;;;5104868;28;20058;-79
2021/10/03 07:06:29;;;;;;;12.07;8.40;;;17.90;96.70;;;;;;5082800;28;20066;-78
2021/10/03 07:08:57;;;;;;;11.10;7.85;;;18.10;96.70;;;;;;5104554;28;20036;-79
2021/10/03 07:11:25;;;;;;;9.63;8.32;;;18.20;96.70;;;;;;5100429;28;20098;-79
2021/10/03 07:13:54;;;;;;;11.80;8.50;;;18.20;96.70;;;;;;5085900;28;20580;-80
2021/10/03 07:16:23;;;;;;;13.02;8.90;;;18.30;96.70;;;;;;5084780;28;20043;-79
2021/10/03 07:18:52;;;;;;;11.18;8.70;;;18.30;96.70;;;;;;5070214;28;20410;-80
2021/10/03 07:21:20;;;;;;;12.00;9.02;;;18.40;96.70;;;;;;5087999;28;20517;-79
2021/10/03 07:23:48;;;;;;;10.25;8.43;;;18.50;96.70;;;;;;5086418;28;20473;-79
2021/10/03 07:26:17;;;;;;;11.05;9.23;;;18.50;96.70;;;;;;5087283;28;20036;-79
2021/10/03 07:28:45;;;;;;;10.43;8.50;;;18.50;96.70;;;;;;5079577;28;20088;-78
2021/10/03 07:31:13;;;;;;;11.98;8.52;;;18.60;96.70;;;;;;5083997;28;20048;-77
2021/10/03 07:33:44;;;;;;;10.05;8.50;;;18.70;96.70;;;;;;5098998;28;20119;-78
2021/10/03 07:36:17;;;;;;;10.27;8.57;;;18.80;96.70;;;;;;5106272;28;20511;-76
2021/10/03 07:38:45;;;;;;;16.67;11.45;;;18.80;96.70;;;;;;5085798;28;20564;-77
2021/10/03 07:41:13;;;;;;;13.02;10.13;;;18.90;96.70;;;;;;5065696;28;20047;-77
2021/10/03 07:43:43;;;;;;;13.55;9.43;;;19.00;96.70;;;;;;5085048;28;20070;-78
2021/10/03 07:46:12;;;;;;;14.70;11.18;;;19.10;96.70;;;;;;5081429;28;20044;-77
2021/10/03 07:48:42;;;;;;;13.48;10.02;;;19.10;96.70;;;;;;5103677;28;20063;-77
2021/10/03 07:51:10;;;;;;;11.88;9.73;;;19.20;96.70;;;;;;5103670;28;20046;-78
2021/10/03 07:53:38;;;;;;;12.77;10.25;;;19.30;96.70;;;;;;5079603;28;20055;-78
2021/10/03 07:56:08;;;;;;;13.07;9.63;;;19.40;96.70;;;;;;5083445;28;20105;-77
2021/10/03 07:58:36;;;;;;;17.50;9.20;;;19.50;96.70;;;;;;5081675;28;20036;-77
2021/10/03 08:01:05;;;;;;;18.52;10.68;;;19.60;96.70;;;;;;5083690;28;20201;-78
2021/10/03 08:03:33;;;;;;;13.25;9.32;;;19.70;96.70;;;;;;5082584;28;20387;-77
2021/10/03 08:06:03;;;;;;;10.23;8.25;;;19.70;96.70;;;;;;5082717;28;20093;-78
2021/10/03 08:08:31;;;;;;;14.20;9.65;;;19.80;96.70;;;;;;5083169;28;20036;-77
2021/10/03 08:10:59;;;;;;;13.38;8.90;;;20.00;96.70;;;;;;5084494;28;20040;-80
2021/10/03 08:13:27;;;;;;;14.25;8.82;;;20.00;96.70;;;;;;5080759;28;20115;-80
2021/10/03 08:15:56;;;;;;;10.02;8.27;;;20.10;96.70;;;;;;5095154;28;20048;-80
2021/10/03 08:18:25;;;;;;;14.95;9.90;;;20.20;96.70;;;;;;5083539;28;20128;-80
2021/10/03 08:20:53;;;;;;;12.48;7.68;;;20.30;96.70;;;;;;5079803;28;20518;-81
2021/10/03 08:23:23;;;;;;;9.00;7.93;;;20.40;96.70;;;;;;5084028;28;20039;-80
2021/10/03 08:25:52;;;;;;;11.38;7.95;;;20.60;96.70;;;;;;5082659;28;20072;-82
2021/10/03 08:28:21;;;;;;;12.68;8.57;;;20.70;96.70;;;;;;5060790;28;20065;-81
2021/10/03 08:30:49;;;;;;;8.88;6.88;;;20.80;96.70;;;;;;5081941;28;20048;-80
2021/10/03 08:33:18;;;;;;;10.13;6.95;;;20.80;96.70;;;;;;5084074;28;20036;-81
2021/10/03 08:35:46;;;;;;;10.68;7.15;;;20.90;96.70;;;;;;5080843;28;20032;-79
2021/10/03 08:38:15;;;;;;;11.95;6.65;;;21.00;96.70;;;;;;5065985;28;20052;-78
2021/10/03 08:40:45;;;;;;;10.25;6.47;;;21.00;96.70;;;;;;5082731;28;20040;-76
2021/10/03 08:43:13;;;;;;;9.07;6.10;;;21.10;96.70;;;;;;5099361;28;20088;-79
2021/10/03 08:45:43;;;;;;;7.47;6.15;;;21.20;96.70;;;;;;5079164;28;20033;-77
2021/10/03 08:48:13;;;;;;;11.25;7.35;;;21.30;96.70;;;;;;5077517;28;20147;-77
2021/10/03 08:50:44;;;;;;;7.60;6.80;;;21.40;96.70;;;;;;5078315;28;20040;-81
2021/10/03 08:53:14;;;;;;;8.60;6.25;;;21.50;96.70;;;;;;5082298;28;24143;-77
2021/10/03 08:55:45;;;;;;;6.63;5.93;;;21.60;96.70;;;;;;5080771;28;20129;-78
2021/10/03 08:58:13;;;;;;;7.55;5.93;;;21.60;96.70;;;;;;5078617;28;20059;-77
2021/10/03 09:00:46;;;;;;;7.50;6.47;;;21.60;96.70;;;;;;5080295;28;20043;-79
2021/10/03 09:03:18;;;;;;;8.25;6.78;;;21.80;96.70;;;;;;5080725;28;20496;-78
2021/10/03 09:05:51;;;;;;;9.05;6.90;;;21.80;96.70;;;;;;5078478;28;20048;-81
2021/10/03 09:08:22;;;;;;;7.18;5.82;;;22.00;96.70;;;;;;5080483;28;20071;-80
2021/10/03 09:10:55;;;;;;;7.75;6.30;;;22.10;96.70;;;;;;5080654;28;20516;-77
2021/10/03 09:13:46;;;;;;;8.10;6.43;;;22.20;96.70;;;;;;5080240;28;20044;-78
2021/10/03 09:16:18;;;;;;;9.13;6.30;;;22.20;96.70;;;;;;5080569;28;20040;-77
2021/10/03 09:18:48;;;;;;;8.73;5.90;;;22.30;96.70;;;;;;5079390;28;20132;-78
2021/10/03 09:21:33;;;;;;;9.40;6.53;;;22.40;96.70;;;;;;5075824;28;20146;-77
2021/10/03 09:24:02;;;;;;;7.30;5.75;;;22.50;96.70;;;;;;5072518;28;20040;-74
2021/10/03 09:26:33;;;;;;;7.30;5.95;;;22.60;96.70;;;;;;5061764;28;20040;-80
2021/10/03 09:29:20;;;;;;;6.82;6.07;;;22.60;96.70;;;;;;5080525;28;20374;-77
2021/10/03 09:32:09;;;;;;;6.53;5.70;;;22.50;96.70;;;;;;5065732;28;20147;-78
2021/10/03 09:34:38;;;;;;;6.28;5.45;;;22.50;96.70;;;;;;5089923;28;20053;-81
2021/10/03 09:37:25;;;;;;;6.95;5.95;;;22.50;96.70;;;;;;5080497;28;20578;-81
2021/10/03 09:40:01;;;;;;;8.87;5.87;;;22.40;96.70;;;;;;5079294;28;20067;-79
2021/10/03 09:42:31;;;;;;;;;;;22.40;96.70;;;;;;5060472;28;20529;-81
2021/10/03 09:45:08;;;;;;;5.85;5.13;;;22.60;96.70;;;;;;5079436;28;20389;-81
2021/10/03 09:47:37;;;;;;;5.97;5.32;;;22.70;96.70;;;;;;5071178;28;20049;-81
2021/10/03 09:50:08;;;;;;;9.27;6.78;;;22.80;96.70;;;;;;5063663;28;20051;-80
2021/10/03 09:52:38;;;;;;;5.80;5.25;;;22.80;96.70;;;;;;5077619;28;20431;-79
2021/10/03 09:55:10;;;;;;;10.07;6.18;;;22.80;96.70;;;;;;5078494;28;20066;-79
2021/10/03 09:57:40;;;;;;;7.53;6.03;;;22.90;96.70;;;;;;5080239;28;20089;-82
2021/10/03 10:00:10;;;;;;;9.45;6.32;;;23.00;96.70;;;;;;5080293;28;20417;-80
2021/10/03 10:02:38;;;;;;;6.38;5.47;;;23.00;96.70;;;;;;5079863;28;20484;-79
2021/10/03 10:05:07;;;;;;;8.45;5.97;;;23.10;96.70;;;;;;5081069;28;20053;-77
2021/10/03 10:07:37;;;;;;;7.40;5.88;;;23.30;96.70;;;;;;5090177;28;20048;-77
2021/10/03 10:10:06;;;;;;;6.65;5.55;;;23.40;96.70;;;;;;5095295;28;20062;-76
2021/10/03 10:12:38;;;;;;;8.48;5.43;;;23.40;96.70;;;;;;5080734;28;20059;-76
2021/10/03 10:15:10;;;;;;;8.02;5.22;;;23.40;96.70;;;;;;5079390;28;20040;-76
2021/10/03 10:17:39;;;;;;;7.55;5.30;;;23.40;96.70;;;;;;5073912;28;20433;-77
2021/10/03 10:20:40;;;;;;;6.43;5.20;;;23.40;96.70;;;;;;5078705;28;20044;-78
2021/10/03 10:23:10;;;;;;;7.18;5.05;;;23.60;96.70;;;;;;5056290;28;20056;-77
2021/10/03 10:25:51;;;;;;;7.25;5.70;;;23.70;96.70;;;;;;5080938;28;20122;-78
2021/10/03 10:28:24;;;;;;;5.85;4.72;;;23.90;96.70;;;;;;5081114;28;20477;-78
2021/10/03 10:31:10;;;;;;;6.43;4.95;;;23.80;96.70;;;;;;5077807;28;20131;-78
2021/10/03 10:34:04;;;;;;;6.15;4.72;;;23.90;96.70;;;;;;5081033;28;20097;-78
2021/10/03 10:36:35;;;;;;;7.65;4.88;;;24.00;96.70;;;;;;5079353;28;20144;-78
2021/10/03 10:39:18;;;;;;;5.22;4.60;;;24.20;96.70;;;;;;5076865;28;20560;-78
2021/10/03 10:41:48;;;;;;;4.95;4.35;;;24.40;96.70;;;;;;5075034;28;20123;-78
2021/10/03 10:44:39;;;;;;;5.90;4.18;;;24.40;96.70;;;;;;5081459;28;20509;-78
2021/10/03 10:47:14;;;;;;;7.07;4.70;;;24.50;96.70;;;;;;5078025;28;20047;-78
2021/10/03 10:49:45;;;;;;;5.13;4.63;;;24.70;96.70;;;;;;5077380;28;20040;-78
2021/10/03 10:52:28;;;;;;;5.05;3.70;;;24.90;96.70;;;;;;5078315;28;20055;-78
2021/10/03 10:55:28;;;;;;;7.25;4.18;;;25.00;96.70;;;;;;5081221;28;20122;-78
2021/10/03 10:58:15;;;;;;;4.93;4.10;;;25.10;96.70;;;;;;5080594;28;20632;-78
2021/10/03 11:00:59;;;;;;;6.68;4.60;;;25.00;96.70;;;;;;5078894;28;20177;-78
2021/10/03 11:03:57;;;;;;;5.30;4.47;;;25.10;96.70;;;;;;5094607;28;20109;-78
2021/10/03 11:06:59;;;;;;;6.50;4.20;;;25.10;96.70;;;;;;5078705;28;20505;-79
2021/10/03 11:09:32;;;;;;;5.68;4.38;;;25.00;96.70;;;;;;5095538;28;20085;-79
2021/10/03 11:12:06;;;;;;;5.82;3.95;;;25.20;96.70;;;;;;5083075;28;20036;-79
2021/10/03 11:14:36;;;;;;;4.50;3.75;;;25.30;96.70;;;;;;5078676;28;20507;-79
2021/10/03 11:17:07;;;;;;;5.25;4.45;;;25.50;96.70;;;;;;5081802;28;20038;-79
2021/10/03 11:19:48;;;;;;;5.55;3.78;;;25.70;96.70;;;;;;5084921;28;20048;-79
2021/10/03 11:22:20;;;;;;;4.32;3.33;;;25.70;96.70;;;;;;5086509;28;20075;-79
2021/10/03 11:24:51;;;;;;;4.72;3.70;;;25.50;96.70;;;;;;5082419;28;20036;-79
2021/10/03 11:27:22;;;;;;;6.28;4.13;;;25.70;96.70;;;;;;5066432;28;20401;-79
2021/10/03 11:29:51;;;;;;;4.47;3.95;;;25.70;96.70;;;;;;5064018;28;20055;-78
2021/10/03 11:32:21;;;;;;;5.72;4.10;;;25.80;96.70;;;;;;5083966;28;20078;-79
2021/10/03 11:34:53;;;;;;;4.30;3.67;;;25.70;96.70;;;;;;5080760;28;20541;-78
2021/10/03 11:37:26;;;;;;;7.43;3.90;;;25.60;96.70;;;;;;5082731;28;20032;-79
2021/10/03 11:39:56;;;;;;;4.32;3.92;;;25.70;96.70;;;;;;5082824;28;20046;-78
2021/10/03 11:42:30;;;;;;;5.10;4.00;;;25.90;96.70;;;;;;5083224;28;20040;-79
2021/10/03 11:45:00;;;;;;;6.20;4.03;;;26.00;96.70;;;;;;5060324;28;20113;-79
2021/10/03 11:47:37;;;;;;;5.50;4.18;;;26.00;96.70;;;;;;5085160;28;20036;-80
2021/10/03 11:50:09;;;;;;;8.55;3.97;;;26.20;96.70;;;;;;5083724;28;20456;-79
2021/10/03 11:52:38;;;;;;;4.38;3.63;;;26.20;96.70;;;;;;5065893;28;20183;-79
2021/10/03 11:55:10;;;;;;;5.47;4.28;;;25.90;96.70;;;;;;5076830;28;20040;-77
2021/10/03 11:57:40;;;;;;;5.75;3.80;;;25.80;96.70;;;;;;5082051;28;20047;-77
2021/10/03 12:00:20;;;;;;;4.80;3.92;;;25.70;96.70;;;;;;5078146;28;20549;-78
2021/10/03 12:02:50;;;;;;;5.05;3.90;;;25.70;96.70;;;;;;5065749;28;20047;-79
2021/10/03 12:05:23;;;;;;;4.15;3.63;;;25.90;96.70;;;;;;5084038;28;20036;-79
2021/10/03 12:08:02;;;;;;;3.83;3.42;;;25.90;96.70;;;;;;5081888;28;20047;-79
2021/10/03 12:10:36;;;;;;;4.93;3.70;;;25.80;96.70;;;;;;5082524;28;20044;-79
2021/10/03 12:13:14;;;;;;;4.70;3.53;;;25.80;96.70;;;;;;5080872;28;20131;-79
2021/10/03 12:15:48;;;;;;;4.97;3.67;;;25.80;96.70;;;;;;5081491;28;20036;-79
2021/10/03 12:18:41;;;;;;;5.03;3.40;;;25.90;96.70;;;;;;5081051;28;20036;-79
2021/10/03 12:21:13;;;;;;;5.38;3.47;;;26.30;96.70;;;;;;5094523;28;20126;-79
2021/10/03 12:23:59;;;;;;;4.40;3.50;;;26.60;96.70;;;;;;5078795;28;20077;-79
2021/10/03 12:26:31;;;;;;;4.70;3.40;;;26.70;96.70;;;;;;5098799;28;20835;-79
2021/10/03 12:29:18;;;;;;;4.15;3.30;;;26.60;96.70;;;;;;5082512;28;20044;-79
2021/10/03 12:31:53;;;;;;;;;;;26.60;96.70;;;;;;5081046;28;20040;-79
2021/10/03 12:34:49;;;;;;;4.07;3.10;;;26.50;96.70;;;;;;5077300;28;19932;-78
2021/10/03 12:37:36;;;;;;;5.35;3.20;;;26.50;96.70;;;;;;5077638;28;20044;-78
2021/10/03 12:40:08;;;;;;;3.83;2.83;;;26.30;96.70;;;;;;5081822;28;20063;-78
2021/10/03 12:42:40;;;;;;;3.72;3.05;;;26.30;96.70;;;;;;5079258;28;20048;-78
2021/10/03 12:45:09;;;;;;;3.85;3.03;;;26.30;96.70;;;;;;5065924;28;20100;-78
2021/10/03 12:47:40;;;;;;;3.63;3.15;;;26.40;96.70;;;;;;5081110;28;20186;-78
2021/10/03 12:50:10;;;;;;;4.18;2.92;;;26.40;96.70;;;;;;5079806;28;20579;-78
2021/10/03 12:52:41;;;;;;;5.10;2.60;;;26.50;96.70;;;;;;5092146;28;20047;-78
2021/10/03 12:55:10;;;;;;;2.95;2.40;;;26.60;96.70;;;;;;5069682;28;20051;-78
2021/10/03 12:57:38;;;;;;;4.15;2.55;;;26.60;96.70;;;;;;5088987;28;20040;-78
2021/10/03 13:00:07;;;;;;;5.47;2.78;;;27.00;96.70;;;;;;5090969;28;20089;-78
2021/10/03 13:02:36;;;;;;;4.50;3.20;;;26.90;96.70;;;;;;5084706;28;20191;-78